createdAt,value
2023-05-22T00:01:02.133Z,8.32
2023-05-22T00:03:05.322Z,6.75
2023-05-22T00:05:10.178Z,7.63
2023-05-22T00:07:12.872Z,6.45
2023-05-22T00:09:15.876Z,5.30
2023-05-22T00:11:18.678Z,7.32
2023-05-22T00:13:21.570Z,7.85
2023-05-22T00:15:25.597Z,6.90
2023-05-22T00:17:30.754Z,8.50
2023-05-22T00:19:33.754Z,7.30
2023-05-22T00:21:37.565Z,7.28
2023-05-22T00:23:41.527Z,8.20
2023-05-22T00:25:44.194Z,9.57
2023-05-22T00:27:46.913Z,5.97
2023-05-22T00:29:49.562Z,6.22
2023-05-22T00:31:53.742Z,7.35
2023-05-22T00:33:56.358Z,4.53
2023-05-22T00:35:59.054Z,7.63
2023-05-22T00:38:04.539Z,5.10
2023-05-22T00:40:08.613Z,6.47
2023-05-22T00:42:11.547Z,6.80
2023-05-22T00:44:14.285Z,7.78
2023-05-22T00:46:21.500Z,6.45
2023-05-22T00:48:26.148Z,8.60
2023-05-22T00:50:29.006Z,6.05
2023-05-22T00:52:31.814Z,5.70
2023-05-22T00:54:34.591Z,6.30
2023-05-22T00:56:37.319Z,5.95
2023-05-22T00:58:40.402Z,7.68
2023-05-22T01:00:43.185Z,6.63
2023-05-22T01:02:46.106Z,6.05
2023-05-22T01:04:50.362Z,6.47
2023-05-22T01:06:53.851Z,6.53
2023-05-22T01:08:56.480Z,9.10
2023-05-22T01:11:03.117Z,4.70
2023-05-22T01:13:07.705Z,7.88
2023-05-22T01:15:13.954Z,6.00
2023-05-22T01:17:22.659Z,6.00
2023-05-22T01:19:36.460Z,5.97
2023-05-22T01:21:46.312Z,5.57
2023-05-22T01:24:06.482Z,6.25
2023-05-22T01:26:30.322Z,7.38
2023-05-22T01:28:42.921Z,6.28
2023-05-22T01:30:48.666Z,6.15
2023-05-22T01:32:53.115Z,5.97
2023-05-22T01:34:57.839Z,7.65
2023-05-22T01:37:01.817Z,5.25
2023-05-22T01:39:06.442Z,6.63
2023-05-22T01:41:09.468Z,6.05
2023-05-22T01:43:13.651Z,5.65
2023-05-22T01:45:16.260Z,5.88
2023-05-22T01:47:21.023Z,4.45
2023-05-22T01:49:23.686Z,6.63
2023-05-22T01:51:31.681Z,6.47
2023-05-22T01:53:37.030Z,6.85
2023-05-22T01:55:43.266Z,6.03
2023-05-22T01:57:50.199Z,5.25
2023-05-22T01:59:55.561Z,7.05
2023-05-22T02:01:59.517Z,7.45
2023-05-22T02:04:04.095Z,6.72
2023-05-22T02:06:08.271Z,6.88
2023-05-22T02:08:11.778Z,6.80
2023-05-22T02:10:15.491Z,6.78
2023-05-22T02:12:18.501Z,6.72
2023-05-22T02:14:22.345Z,4.68
2023-05-22T02:16:25.447Z,6.38
2023-05-22T02:18:29.528Z,5.50
2023-05-22T02:20:33.884Z,7.05
2023-05-22T02:22:36.885Z,5.68
2023-05-22T02:24:39.604Z,6.88
2023-05-22T02:26:43.831Z,4.60
2023-05-22T02:28:46.961Z,6.60
2023-05-22T02:30:49.702Z,6.50
2023-05-22T02:32:52.555Z,6.13
2023-05-22T02:34:55.220Z,5.57
2023-05-22T02:36:59.756Z,4.97
2023-05-22T02:39:02.836Z,6.18
2023-05-22T02:41:05.521Z,7.03
2023-05-22T02:43:08.196Z,5.60
2023-05-22T02:45:11.327Z,6.60
2023-05-22T02:47:14.196Z,4.93
2023-05-22T02:49:17.014Z,4.30
2023-05-22T02:51:19.661Z,6.82
2023-05-22T02:53:23.672Z,6.97
2023-05-22T02:55:26.457Z,6.60
2023-05-22T02:57:29.178Z,6.15
2023-05-22T02:59:32.888Z,5.63
2023-05-22T03:01:36.521Z,4.10
2023-05-22T03:03:39.447Z,4.85
2023-05-22T03:05:42.373Z,5.00
2023-05-22T03:07:48.159Z,6.43
2023-05-22T03:09:52.749Z,8.48
2023-05-22T03:11:55.452Z,5.70
2023-05-22T03:13:58.119Z,5.13
2023-05-22T03:16:00.764Z,5.82
2023-05-22T03:18:03.480Z,4.57
2023-05-22T03:20:08.785Z,6.93
2023-05-22T03:22:11.556Z,6.38
2023-05-22T03:24:14.210Z,7.47
2023-05-22T03:26:18.417Z,7.22
2023-05-22T03:28:21.307Z,6.95
2023-05-22T03:30:23.910Z,6.18
2023-05-22T03:32:26.567Z,7.35
2023-05-22T03:34:30.039Z,7.35
2023-05-22T03:36:35.036Z,7.22
2023-05-22T03:38:37.714Z,6.68
2023-05-22T03:40:40.789Z,5.80
2023-05-22T03:42:44.963Z,6.07
2023-05-22T03:44:47.580Z,7.22
2023-05-22T03:46:50.195Z,7.50
2023-05-22T03:48:52.792Z,6.38
2023-05-22T03:50:55.672Z,6.65
2023-05-22T03:52:58.581Z,7.90
2023-05-22T03:55:01.823Z,7.93
2023-05-22T03:57:04.591Z,5.20
2023-05-22T03:59:08.686Z,6.60
2023-05-22T04:01:13.793Z,9.65
2023-05-22T04:03:19.777Z,7.63
2023-05-22T04:05:22.807Z,5.10
2023-05-22T04:07:25.474Z,7.03
2023-05-22T04:09:28.616Z,6.78
2023-05-22T04:11:32.092Z,5.40
2023-05-22T04:13:37.186Z,6.10
2023-05-22T04:15:44.562Z,6.65
2023-05-22T04:17:47.472Z,5.57
2023-05-22T04:19:50.232Z,6.03
2023-05-22T04:21:52.865Z,6.43
2023-05-22T04:23:55.488Z,7.70
2023-05-22T04:25:58.337Z,6.20
2023-05-22T04:28:03.037Z,6.40
2023-05-22T04:30:07.448Z,5.70
2023-05-22T04:32:11.703Z,6.13
2023-05-22T04:34:16.608Z,6.20
2023-05-22T04:36:22.381Z,5.13
2023-05-22T04:38:26.366Z,5.47
2023-05-22T04:40:29.581Z,6.50
2023-05-22T04:42:32.202Z,6.25
2023-05-22T04:44:35.328Z,7.30
2023-05-22T04:46:38.496Z,6.18
2023-05-22T04:48:42.811Z,4.50
2023-05-22T04:50:46.362Z,5.95
2023-05-22T04:52:49.475Z,6.53
2023-05-22T04:54:52.650Z,7.85
2023-05-22T04:56:55.265Z,4.55
2023-05-22T04:58:57.923Z,6.05
2023-05-22T05:01:00.610Z,7.03
2023-05-22T05:03:03.472Z,6.05
2023-05-22T05:05:07.944Z,8.32
2023-05-22T05:07:10.687Z,6.90
2023-05-22T05:09:13.308Z,6.68
2023-05-22T05:11:15.917Z,8.13
2023-05-22T05:13:18.671Z,7.53
2023-05-22T05:15:22.790Z,5.75
2023-05-22T05:17:25.491Z,6.68
2023-05-22T05:19:28.885Z,6.25
2023-05-22T05:21:33.234Z,8.77
2023-05-22T05:23:36.315Z,6.85
2023-05-22T05:25:38.962Z,8.15
2023-05-22T05:27:41.765Z,6.47
2023-05-22T05:29:44.429Z,7.70
2023-05-22T05:31:47.124Z,9.23
2023-05-22T05:33:50.415Z,6.70
2023-05-22T05:35:53.765Z,7.82
2023-05-22T05:37:58.226Z,7.57
2023-05-22T05:40:00.858Z,7.20
2023-05-22T05:42:03.561Z,6.68
2023-05-22T05:44:06.308Z,8.02
2023-05-22T05:46:09.048Z,9.00
2023-05-22T05:48:11.851Z,9.95
2023-05-22T05:50:15.605Z,11.32
2023-05-22T05:52:18.574Z,8.02
2023-05-22T05:54:22.694Z,6.10
2023-05-22T05:56:25.712Z,6.18
2023-05-22T05:58:28.348Z,6.18
2023-05-22T06:00:31.290Z,7.10
2023-05-22T06:02:34.191Z,8.73
2023-05-22T06:04:37.056Z,7.63
2023-05-22T06:06:39.769Z,7.53
2023-05-22T06:08:42.633Z,6.03
2023-05-22T06:10:47.245Z,9.05
2023-05-22T06:12:49.888Z,7.20
2023-05-22T06:14:52.683Z,6.45
2023-05-22T06:16:55.469Z,8.48
2023-05-22T06:18:59.176Z,8.65
2023-05-22T06:21:01.861Z,7.65
2023-05-22T06:23:04.504Z,9.02
2023-05-22T06:25:07.580Z,7.40
2023-05-22T06:27:11.693Z,6.60
2023-05-22T06:29:14.350Z,6.90
2023-05-22T06:31:17.151Z,8.23
2023-05-22T06:33:19.964Z,7.43
2023-05-22T06:35:22.715Z,8.23
2023-05-22T06:37:25.305Z,6.75
2023-05-22T06:39:29.778Z,6.18
2023-05-22T06:41:34.761Z,6.80
2023-05-22T06:43:38.824Z,5.80
2023-05-22T06:45:41.571Z,7.00
2023-05-22T06:47:44.243Z,7.20
2023-05-22T06:49:47.047Z,6.78
2023-05-22T06:51:49.808Z,7.93
2023-05-22T06:53:52.517Z,8.15
2023-05-22T06:55:55.146Z,7.63
2023-05-22T06:57:57.783Z,7.22
2023-05-22T07:00:02.132Z,6.32
2023-05-22T07:02:04.958Z,8.45
2023-05-22T07:04:09.043Z,4.97
2023-05-22T07:06:12.391Z,6.22
2023-05-22T07:08:15.137Z,7.63
2023-05-22T07:10:17.764Z,7.22
2023-05-22T07:12:25.829Z,9.20
2023-05-22T07:14:28.629Z,5.80
2023-05-22T07:16:32.769Z,5.70
2023-05-22T07:18:35.502Z,7.95
2023-05-22T07:20:38.556Z,7.53
2023-05-22T07:22:41.407Z,8.23
2023-05-22T07:24:44.237Z,5.75
2023-05-22T07:26:46.988Z,6.43
2023-05-22T07:28:50.247Z,5.70
2023-05-22T07:30:52.972Z,7.82
2023-05-22T07:32:57.043Z,7.28
2023-05-22T07:34:59.724Z,9.73
2023-05-22T07:37:07.524Z,8.68
2023-05-22T07:39:10.358Z,7.95
2023-05-22T07:41:12.990Z,6.63
2023-05-22T07:43:16.272Z,7.93
2023-05-22T07:45:19.526Z,8.02
2023-05-22T07:47:22.280Z,6.80
2023-05-22T07:49:26.550Z,8.75
2023-05-22T07:51:29.701Z,7.78
2023-05-22T07:53:32.474Z,6.07
2023-05-22T07:55:35.209Z,7.20
2023-05-22T07:57:38.505Z,8.05
2023-05-22T07:59:43.754Z,6.95
2023-05-22T08:01:46.609Z,7.97
2023-05-22T08:03:49.726Z,8.43
2023-05-22T08:05:53.840Z,7.43
2023-05-22T08:07:56.493Z,7.82
2023-05-22T08:09:59.167Z,9.00
2023-05-22T08:12:02.040Z,8.13
2023-05-22T08:14:04.683Z,8.13
2023-05-22T08:16:07.659Z,5.97
2023-05-22T08:18:11.793Z,8.80
2023-05-22T08:20:14.670Z,9.48
2023-05-22T08:22:18.838Z,7.50
2023-05-22T08:24:22.408Z,5.60
2023-05-22T08:26:25.082Z,9.70
2023-05-22T08:28:27.794Z,9.73
2023-05-22T08:30:30.765Z,8.68
2023-05-22T08:32:33.495Z,8.27
2023-05-22T08:34:36.513Z,6.75
2023-05-22T08:36:39.522Z,7.88
2023-05-22T08:38:43.680Z,7.70
2023-05-22T08:40:48.981Z,10.30
2023-05-22T08:42:54.348Z,8.73
2023-05-22T08:44:57.318Z,10.10
2023-05-22T08:47:04.088Z,7.13
2023-05-22T08:49:07.065Z,7.93
2023-05-22T08:51:12.035Z,9.07
2023-05-22T08:53:16.387Z,6.90
2023-05-22T08:55:20.938Z,7.70
2023-05-22T08:57:24.255Z,6.88
2023-05-22T08:59:27.228Z,8.82
2023-05-22T09:01:30.200Z,9.77
2023-05-22T09:03:35.040Z,9.35
2023-05-22T09:05:39.211Z,9.32
2023-05-22T09:07:42.302Z,9.13
2023-05-22T09:09:44.986Z,7.75
2023-05-22T09:11:49.307Z,8.73
2023-05-22T09:13:52.262Z,8.00
2023-05-22T09:15:55.992Z,8.20
2023-05-22T09:17:58.939Z,6.25
2023-05-22T09:20:02.044Z,9.60
2023-05-22T09:22:06.188Z,9.05
2023-05-22T09:24:10.911Z,12.38
2023-05-22T09:26:13.564Z,9.63
2023-05-22T09:28:17.774Z,8.50
2023-05-22T09:30:20.522Z,6.50
2023-05-22T09:32:23.390Z,6.18
2023-05-22T09:34:28.983Z,9.75
2023-05-22T09:36:33.382Z,8.13
2023-05-22T09:38:36.057Z,9.52
2023-05-22T09:40:39.445Z,11.45
2023-05-22T09:42:45.089Z,9.95
2023-05-22T09:44:50.678Z,7.30
2023-05-22T09:46:53.464Z,6.78
2023-05-22T09:48:56.157Z,6.15
2023-05-22T09:50:59.988Z,7.53
2023-05-22T09:53:03.975Z,8.48
2023-05-22T09:55:07.401Z,7.25
2023-05-22T09:57:11.674Z,5.28
2023-05-22T09:59:14.400Z,7.78
2023-05-22T10:01:18.670Z,7.70
2023-05-22T10:03:24.417Z,5.82
2023-05-22T10:05:30.414Z,9.60
2023-05-22T10:07:36.925Z,8.45
2023-05-22T10:09:40.918Z,9.95
2023-05-22T10:11:44.215Z,8.32
2023-05-22T10:13:47.871Z,8.00
2023-05-22T10:15:52.293Z,6.25
2023-05-22T10:17:57.935Z,8.20
2023-05-22T10:20:01.102Z,11.40
2023-05-22T10:22:04.789Z,9.20
2023-05-22T10:24:07.913Z,7.75
2023-05-22T10:26:11.202Z,8.05
2023-05-22T10:28:16.049Z,8.43
2023-05-22T10:30:21.884Z,4.93
2023-05-22T10:32:29.150Z,8.07
2023-05-22T10:34:38.664Z,8.95
2023-05-22T10:38:52.034Z,5.60
2023-05-22T10:40:55.301Z,8.30
2023-05-22T10:42:58.572Z,8.55
2023-05-22T10:45:01.929Z,9.15
2023-05-22T10:47:10.188Z,10.20
2023-05-22T10:49:21.256Z,9.65
2023-05-22T10:51:25.709Z,7.18
2023-05-22T10:53:28.846Z,8.95
2023-05-22T10:55:31.547Z,8.35
2023-05-22T10:57:35.312Z,8.55
2023-05-22T10:59:38.031Z,8.02
2023-05-22T11:01:40.801Z,8.82
2023-05-22T11:03:53.242Z,7.78
2023-05-22T11:05:55.976Z,9.55
2023-05-22T11:08:11.539Z,8.13
2023-05-22T11:10:14.397Z,9.93
2023-05-22T11:12:18.037Z,8.52
2023-05-22T11:14:21.353Z,8.38
2023-05-22T11:16:23.983Z,8.07
2023-05-22T11:18:29.405Z,7.63
2023-05-22T11:20:39.933Z,8.50
2023-05-22T11:22:43.305Z,8.38
2023-05-22T11:24:47.362Z,7.00
2023-05-22T11:27:02.052Z,7.45
2023-05-22T11:29:08.339Z,7.63
2023-05-22T11:31:11.151Z,7.70
2023-05-22T11:33:14.056Z,9.00
2023-05-22T11:35:17.598Z,9.13
2023-05-22T11:37:20.723Z,7.93
2023-05-22T11:39:24.180Z,7.55
2023-05-22T11:41:33.632Z,7.60
2023-05-22T11:43:38.172Z,7.55
2023-05-22T11:45:41.165Z,9.82
2023-05-22T11:47:44.185Z,10.00
2023-05-22T11:49:47.181Z,8.90
2023-05-22T11:51:49.885Z,9.93
2023-05-22T11:53:53.323Z,7.22
2023-05-22T11:55:56.277Z,9.40
2023-05-22T11:58:01.985Z,9.15
2023-05-22T12:00:06.358Z,8.52
2023-05-22T12:02:09.229Z,7.40
2023-05-22T12:04:12.270Z,9.07
2023-05-22T12:06:17.175Z,11.85
2023-05-22T12:08:20.274Z,10.00
2023-05-22T12:10:22.963Z,13.02
2023-05-22T12:12:26.290Z,9.50
2023-05-22T12:14:31.361Z,12.88
2023-05-22T12:16:35.397Z,7.40
2023-05-22T12:18:38.155Z,7.75
2023-05-22T12:20:43.365Z,12.00
2023-05-22T12:22:45.980Z,9.52
2023-05-22T12:24:52.844Z,11.73
2023-05-22T12:26:56.162Z,10.93
2023-05-22T12:28:59.193Z,10.93
2023-05-22T12:31:03.220Z,9.65
2023-05-22T12:33:06.712Z,9.15
2023-05-22T12:35:15.832Z,9.27
2023-05-22T12:37:21.756Z,12.32
2023-05-22T12:39:24.598Z,8.85
2023-05-22T12:41:27.310Z,8.85
2023-05-22T12:43:30.238Z,10.10
2023-05-22T12:45:33.127Z,9.07
2023-05-22T12:47:37.755Z,10.13
2023-05-22T12:49:40.428Z,10.27
2023-05-22T12:51:43.096Z,14.07
2023-05-22T12:53:46.027Z,8.80
2023-05-22T12:55:48.707Z,11.48
2023-05-22T12:57:51.363Z,9.70
2023-05-22T12:59:54.004Z,9.75
2023-05-22T13:01:59.491Z,9.07
2023-05-22T13:04:04.329Z,16.45
2023-05-22T13:06:07.178Z,12.93
2023-05-22T13:08:09.915Z,14.50
2023-05-22T13:10:13.348Z,13.45
2023-05-22T13:12:16.153Z,12.23
2023-05-22T13:14:18.920Z,11.60
2023-05-22T13:16:21.633Z,11.45
2023-05-22T13:18:24.350Z,11.00
2023-05-22T13:20:28.319Z,11.40
2023-05-22T13:22:31.074Z,13.70
2023-05-22T13:24:34.360Z,11.00
2023-05-22T13:26:37.220Z,13.27
2023-05-22T13:28:39.884Z,9.18
2023-05-22T13:30:42.549Z,10.73
2023-05-22T13:32:45.154Z,8.63
2023-05-22T13:34:48.006Z,10.35
2023-05-22T13:36:52.497Z,9.75
2023-05-22T13:38:55.120Z,7.60
2023-05-22T13:40:58.063Z,11.35
2023-05-22T13:43:00.817Z,8.10
2023-05-22T13:45:03.658Z,9.75
2023-05-22T13:47:06.401Z,13.70
2023-05-22T13:49:09.122Z,13.25
2023-05-22T13:51:14.021Z,11.63
2023-05-22T13:53:20.817Z,11.15
2023-05-22T13:55:23.610Z,10.13
2023-05-22T13:57:26.352Z,11.35
2023-05-22T13:59:29.379Z,9.65
2023-05-22T14:01:32.125Z,11.25
2023-05-22T14:03:35.030Z,12.75
2023-05-22T14:05:38.056Z,8.52
2023-05-22T14:07:40.924Z,9.05
2023-05-22T14:09:45.003Z,10.45
2023-05-22T14:11:47.684Z,8.40
2023-05-22T14:13:52.253Z,8.55
2023-05-22T14:15:54.940Z,7.47
2023-05-22T14:17:57.585Z,9.65
2023-05-22T14:20:00.465Z,21.98
2023-05-22T14:22:04.660Z,14.00
2023-05-22T14:24:07.544Z,13.93
2023-05-22T14:26:12.004Z,12.32
2023-05-22T14:28:16.593Z,11.90
2023-05-22T14:30:19.489Z,11.45
2023-05-22T14:32:22.788Z,12.13
2023-05-22T14:34:25.463Z,12.52
2023-05-22T14:36:28.125Z,12.93
2023-05-22T14:38:33.593Z,10.45
2023-05-22T14:40:36.365Z,8.73
2023-05-22T14:42:40.345Z,13.32
2023-05-22T14:44:43.329Z,12.32
2023-05-22T14:46:46.230Z,10.75
2023-05-22T14:48:49.089Z,13.35
2023-05-22T14:50:51.824Z,6.28
2023-05-22T14:52:54.717Z,10.52
2023-05-22T14:54:57.707Z,7.57
2023-05-22T14:57:00.541Z,8.32
2023-05-22T14:59:04.515Z,10.00
2023-05-22T15:01:07.390Z,10.93
2023-05-22T15:03:10.066Z,9.25
2023-05-22T15:05:12.884Z,8.23
2023-05-22T15:07:15.811Z,7.32
2023-05-22T15:09:18.421Z,9.60
2023-05-22T15:11:21.927Z,10.50
2023-05-22T15:13:24.758Z,9.70
2023-05-22T15:15:28.727Z,12.32
2023-05-22T15:17:31.646Z,9.52
2023-05-22T15:19:34.376Z,9.10
2023-05-22T15:21:37.142Z,7.25
2023-05-22T15:23:39.891Z,7.72
2023-05-22T15:25:43.561Z,10.45
2023-05-22T15:27:46.238Z,7.45
2023-05-22T15:29:49.009Z,7.70
2023-05-22T15:31:53.347Z,6.38
2023-05-22T15:33:56.235Z,8.73
2023-05-22T15:35:59.116Z,7.93
2023-05-22T15:38:03.073Z,9.35
2023-05-22T15:40:07.017Z,11.45
2023-05-22T15:42:09.993Z,8.52
2023-05-22T15:44:12.642Z,10.73
2023-05-22T15:46:16.796Z,11.73
2023-05-22T15:48:21.073Z,7.95
2023-05-22T15:50:24.257Z,8.05
2023-05-22T15:52:26.874Z,7.63
2023-05-22T15:54:29.666Z,9.15
2023-05-22T15:56:32.271Z,9.25
2023-05-22T15:58:35.030Z,7.53
2023-05-22T16:00:41.155Z,6.55
2023-05-22T16:02:44.114Z,7.43
2023-05-22T16:04:48.535Z,9.65
2023-05-22T16:06:51.229Z,7.35
2023-05-22T16:08:54.302Z,8.35
2023-05-22T16:11:00.629Z,7.50
2023-05-22T16:13:05.074Z,6.13
2023-05-22T16:15:08.380Z,8.98
2023-05-22T16:17:11.117Z,7.15
2023-05-22T16:19:13.916Z,6.70
2023-05-22T16:21:18.009Z,6.97
2023-05-22T16:23:20.731Z,7.93
2023-05-22T16:25:23.463Z,7.78
2023-05-22T16:27:26.222Z,7.03
2023-05-22T16:29:28.912Z,6.68
2023-05-22T16:31:35.312Z,9.57
2023-05-22T16:33:38.017Z,9.32
2023-05-22T16:35:41.053Z,7.47
2023-05-22T16:37:45.324Z,7.55
2023-05-22T16:39:48.055Z,10.00
2023-05-22T16:41:52.844Z,11.18
2023-05-22T16:43:56.616Z,6.93
2023-05-22T16:45:59.353Z,6.53
2023-05-22T16:48:02.056Z,7.78
2023-05-22T16:50:05.157Z,7.85
2023-05-22T16:52:07.888Z,8.73
2023-05-22T16:54:11.864Z,10.43
2023-05-22T16:56:16.821Z,8.27
2023-05-22T16:58:19.486Z,8.10
2023-05-22T17:00:22.378Z,8.57
2023-05-22T17:02:25.457Z,8.40
2023-05-22T17:04:28.156Z,9.20
2023-05-22T17:06:33.398Z,9.85
2023-05-22T17:08:36.055Z,7.88
2023-05-22T17:10:41.581Z,7.70
2023-05-22T17:12:44.477Z,9.88
2023-05-22T17:14:47.255Z,9.43
2023-05-22T17:16:50.188Z,7.88
2023-05-22T17:18:54.851Z,7.78
2023-05-22T17:20:57.903Z,11.57
2023-05-22T17:23:00.863Z,8.93
2023-05-22T17:25:03.595Z,8.07
2023-05-22T17:27:07.792Z,8.60
2023-05-22T17:29:10.933Z,9.10
2023-05-22T17:31:13.664Z,8.35
2023-05-22T17:33:16.408Z,7.43
2023-05-22T17:35:19.114Z,11.00
2023-05-22T17:37:21.801Z,10.10
2023-05-22T17:39:24.478Z,9.55
2023-05-22T17:41:27.136Z,8.32
2023-05-22T17:43:35.010Z,9.30
2023-05-22T17:45:37.880Z,9.15
2023-05-22T17:47:40.788Z,8.27
2023-05-22T17:49:43.525Z,8.20
2023-05-22T17:51:46.228Z,10.48
2023-05-22T17:53:48.859Z,11.23
2023-05-22T17:55:52.409Z,8.75
2023-05-22T17:57:55.443Z,10.95
2023-05-22T17:59:59.519Z,7.30
2023-05-22T18:02:02.406Z,9.05
2023-05-22T18:04:05.373Z,8.90
2023-05-22T18:06:08.571Z,11.95
2023-05-22T18:08:11.685Z,8.95
2023-05-22T18:10:14.444Z,11.50
2023-05-22T18:12:31.300Z,10.52
2023-05-22T18:14:34.873Z,10.07
2023-05-22T18:16:38.949Z,12.35
2023-05-22T18:18:41.809Z,8.63
2023-05-22T18:20:44.728Z,9.98
2023-05-22T18:22:47.410Z,10.27
2023-05-22T18:24:50.121Z,8.23
2023-05-22T18:26:52.785Z,9.25
2023-05-22T18:28:56.146Z,8.13
2023-05-22T18:30:58.855Z,11.70
2023-05-22T18:33:03.391Z,8.82
2023-05-22T18:35:07.264Z,9.95
2023-05-22T18:37:09.948Z,11.85
2023-05-22T18:39:12.613Z,9.70
2023-05-22T18:41:15.200Z,17.95
2023-05-22T18:43:18.022Z,12.77
2023-05-22T18:45:20.663Z,12.77
2023-05-22T18:47:23.346Z,12.13
2023-05-22T18:49:27.677Z,10.27
2023-05-22T18:51:31.750Z,16.52
2023-05-22T18:53:34.473Z,17.42
2023-05-22T18:55:37.478Z,12.50
2023-05-22T18:57:40.110Z,13.15
2023-05-22T18:59:43.572Z,10.57
2023-05-22T19:01:46.585Z,12.57
2023-05-22T19:03:49.473Z,11.35
2023-05-22T19:05:53.521Z,10.45
2023-05-22T19:07:56.400Z,12.52
2023-05-22T19:09:59.132Z,12.10
2023-05-22T19:12:01.872Z,21.90
2023-05-22T19:14:04.654Z,13.73
2023-05-22T19:16:07.344Z,11.63
2023-05-22T19:18:11.401Z,13.20
2023-05-22T19:20:14.238Z,15.20
2023-05-22T19:22:18.553Z,11.30
2023-05-22T19:24:21.321Z,11.27
2023-05-22T19:26:23.938Z,13.95
2023-05-22T19:28:26.838Z,11.35
2023-05-22T19:30:29.480Z,10.40
2023-05-22T19:32:32.231Z,12.80
2023-05-22T19:34:34.957Z,13.35
2023-05-22T19:36:37.734Z,13.93
2023-05-22T19:38:41.726Z,12.38
2023-05-22T19:40:44.433Z,11.68
2023-05-22T19:42:47.166Z,9.85
2023-05-22T19:44:50.026Z,11.75
2023-05-22T19:46:52.770Z,16.65
2023-05-22T19:48:55.642Z,11.40
2023-05-22T19:50:58.384Z,15.82
2023-05-22T19:53:01.006Z,15.43
2023-05-22T19:55:06.468Z,14.32
2023-05-22T19:57:09.179Z,12.98
2023-05-22T19:59:12.116Z,16.25
2023-05-22T20:01:14.912Z,14.85
2023-05-22T20:03:18.025Z,12.73
2023-05-22T20:05:20.842Z,11.77
2023-05-22T20:07:23.808Z,12.35
2023-05-22T20:09:27.184Z,14.10
2023-05-22T20:11:31.163Z,12.52
2023-05-22T20:13:34.099Z,15.82
2023-05-22T20:15:38.005Z,11.43
2023-05-22T20:17:41.748Z,10.77
2023-05-22T20:19:45.172Z,14.70
2023-05-22T20:21:49.856Z,11.50
2023-05-22T20:23:52.878Z,10.10
2023-05-22T20:25:55.665Z,11.07
2023-05-22T20:27:59.753Z,10.68
2023-05-22T20:30:02.538Z,14.57
2023-05-22T20:32:05.416Z,10.35
2023-05-22T20:34:09.229Z,11.32
2023-05-22T20:36:12.058Z,12.30
2023-05-22T20:38:15.229Z,13.02
2023-05-22T20:40:18.602Z,11.90
2023-05-22T20:42:22.371Z,13.07
2023-05-22T20:44:27.018Z,10.27
2023-05-22T20:46:29.762Z,12.55
2023-05-22T20:48:32.935Z,13.10
2023-05-22T20:50:36.973Z,11.15
2023-05-22T20:52:41.049Z,10.55
2023-05-22T20:54:43.728Z,13.70
2023-05-22T20:56:46.538Z,15.32
2023-05-22T20:58:49.351Z,11.85
2023-05-22T21:00:53.688Z,12.73
2023-05-22T21:02:58.401Z,14.27
2023-05-22T21:05:01.318Z,12.55
2023-05-22T21:07:05.035Z,11.95
2023-05-22T21:09:07.950Z,12.85
2023-05-22T21:11:10.645Z,11.02
2023-05-22T21:13:13.249Z,13.27
2023-05-22T21:15:16.035Z,11.13
2023-05-22T21:17:20.297Z,11.52
2023-05-22T21:19:23.071Z,8.98
2023-05-22T21:21:25.722Z,10.55
2023-05-22T21:23:28.761Z,8.90
2023-05-22T21:25:31.566Z,10.43
2023-05-22T21:27:34.153Z,10.02
2023-05-22T21:29:36.821Z,10.25
2023-05-22T21:31:39.571Z,8.75
2023-05-22T21:33:43.886Z,11.98
2023-05-22T21:35:46.518Z,8.73
2023-05-22T21:37:49.386Z,9.88
2023-05-22T21:39:52.274Z,7.85
2023-05-22T21:41:55.381Z,9.10
2023-05-22T21:43:58.032Z,9.82
2023-05-22T21:46:00.854Z,8.15
2023-05-22T21:48:03.635Z,10.43
2023-05-22T21:50:08.946Z,8.95
2023-05-22T21:52:11.602Z,9.65
2023-05-22T21:54:14.231Z,9.85
2023-05-22T21:56:16.903Z,9.27
2023-05-22T21:58:19.780Z,8.38
2023-05-22T22:00:22.850Z,7.90
2023-05-22T22:02:25.656Z,9.23
2023-05-22T22:04:28.337Z,7.30
2023-05-22T22:06:32.360Z,9.82
2023-05-22T22:08:35.005Z,8.95
2023-05-22T22:10:37.888Z,9.63
2023-05-22T22:12:40.686Z,8.27
2023-05-22T22:14:43.369Z,8.98
2023-05-22T22:16:46.856Z,9.13
2023-05-22T22:18:50.290Z,7.65
2023-05-22T22:20:54.261Z,9.38
2023-05-22T22:22:58.310Z,9.07
2023-05-22T22:25:01.015Z,9.85
2023-05-22T22:27:03.721Z,9.30
2023-05-22T22:29:06.312Z,9.95
2023-05-22T22:31:09.101Z,9.73
2023-05-22T22:33:12.825Z,8.20
2023-05-22T22:35:15.542Z,9.50
2023-05-22T22:37:18.933Z,8.90
2023-05-22T22:39:22.899Z,9.82
2023-05-22T22:41:26.043Z,9.75
2023-05-22T22:43:28.992Z,9.68
2023-05-22T22:45:31.930Z,9.63
2023-05-22T22:47:34.944Z,8.52
2023-05-22T22:49:38.352Z,9.95
2023-05-22T22:51:40.925Z,8.73
2023-05-22T22:53:43.621Z,8.55
2023-05-22T22:55:48.541Z,10.25
2023-05-22T22:57:51.593Z,10.20
2023-05-22T22:59:54.221Z,8.98
2023-05-22T23:01:57.032Z,11.50
2023-05-22T23:03:59.880Z,12.57
2023-05-22T23:06:02.556Z,9.55
2023-05-22T23:08:05.366Z,10.32
2023-05-22T23:10:09.010Z,11.50
2023-05-22T23:12:13.009Z,11.00
2023-05-22T23:14:15.791Z,10.70
2023-05-22T23:16:18.547Z,9.43
2023-05-22T23:18:22.286Z,8.38
2023-05-22T23:20:24.989Z,8.90
2023-05-22T23:22:27.605Z,8.88
2023-05-22T23:24:30.248Z,9.70
2023-05-22T23:26:33.084Z,17.95
2023-05-22T23:28:37.240Z,10.68
2023-05-22T23:30:39.882Z,9.73
2023-05-22T23:32:42.699Z,8.68
2023-05-22T23:34:45.332Z,10.02
2023-05-22T23:36:48.078Z,8.68
2023-05-22T23:38:50.829Z,9.57
2023-05-22T23:40:53.489Z,11.60
2023-05-22T23:42:56.048Z,12.60
2023-05-22T23:45:00.026Z,9.82
2023-05-22T23:47:02.822Z,12.32
2023-05-22T23:49:05.927Z,9.80
2023-05-22T23:51:09.496Z,9.50
2023-05-22T23:53:12.276Z,9.25
2023-05-22T23:55:14.892Z,10.85
2023-05-22T23:57:17.759Z,9.52
2023-05-22T23:59:20.605Z,8.30
